KDGW/DGW METAR and TAF weather

Enter ICAO airport designator
Station Type Date Time Source
KDGW METAR 2021/05/14 13:53 UTC NOAA

KDGW 141353Z AUTO 13003KT 10SM OVC100 08/05 A3014 RMK AO2 SLP184 T00830050


Station Type Date Time Source
KDGW Decoded METAR 2021/05/14 13:53 UTC NOAA

DOUGLAS CONVERSE COUNTY, WY, United States (KDGW) 42-48N 105-23W 1499M
May 14, 2021 - 09:53 AM EDT / 2021.05.14 1353 UTC
Wind: from the SE (130 degrees) at 3 MPH (3 KT):0
Visibility: 10 mile(s):0
Sky conditions: overcast
Temperature: 46.9 F (8.3 C)
Dew Point: 41.0 F (5.0 C)
Relative Humidity: 79%
Pressure (altimeter): 30.14 in. Hg (1020 hPa)
ob: KDGW 141353Z AUTO 13003KT 10SM OVC100 08/05 A3014 RMK AO2 SLP184 T00830050
cycle: 14

Station Type Date Time Source
KDGW TAF UTC NOAA

Error!

Example: see airport list